createdAt,value
2023-02-26T00:00:50.233Z,82.61
2023-02-26T00:02:52.332Z,83.02
2023-02-26T00:04:55.499Z,83.05
2023-02-26T00:06:58.032Z,82.38
2023-02-26T00:09:01.122Z,82.40
2023-02-26T00:11:08.513Z,82.21
2023-02-26T00:13:11.611Z,82.03
2023-02-26T00:15:17.967Z,81.53
2023-02-26T00:17:32.201Z,81.44
2023-02-26T00:19:34.455Z,81.74
2023-02-26T00:21:37.130Z,80.04
2023-02-26T00:23:39.359Z,78.88
2023-02-26T00:25:42.608Z,77.42
2023-02-26T00:27:45.541Z,76.58
2023-02-26T00:29:48.068Z,76.97
2023-02-26T00:31:50.422Z,76.91
2023-02-26T00:33:54.123Z,74.73
2023-02-26T00:36:21.356Z,73.96
2023-02-26T00:38:23.930Z,72.49
2023-02-26T00:40:36.794Z,72.73
2023-02-26T00:42:39.031Z,72.21
2023-02-26T00:44:41.670Z,70.52
2023-02-26T00:46:56.409Z,71.82
2023-02-26T00:49:14.798Z,72.46
2023-02-26T00:51:36.421Z,71.65
2023-02-26T00:53:44.243Z,72.87
2023-02-26T00:55:46.176Z,72.66
2023-02-26T00:57:48.147Z,72.73
2023-02-26T00:59:50.109Z,72.63
2023-02-26T01:01:53.413Z,72.47
2023-02-26T01:03:56.638Z,72.96
2023-02-26T01:05:58.765Z,71.97
2023-02-26T01:08:06.895Z,72.39
2023-02-26T01:10:11.434Z,73.14
2023-02-26T01:12:14.054Z,73.00
2023-02-26T01:14:16.357Z,72.60
2023-02-26T01:16:25.560Z,72.99
2023-02-26T01:18:36.485Z,73.50
2023-02-26T01:21:10.272Z,73.42
2023-02-26T01:23:16.815Z,73.52
2023-02-26T01:25:37.335Z,74.15
2023-02-26T01:27:39.734Z,74.64
2023-02-26T01:29:41.771Z,74.57
2023-02-26T01:31:49.363Z,74.78
2023-02-26T01:33:55.839Z,74.80
2023-02-26T01:36:09.697Z,74.99
2023-02-26T01:38:36.523Z,74.43
2023-02-26T01:41:12.286Z,72.96
2023-02-26T01:43:22.324Z,73.08
2023-02-26T01:45:39.611Z,72.23
2023-02-26T01:48:03.479Z,71.42
2023-02-26T01:50:14.777Z,70.96
2023-02-26T01:52:35.423Z,70.73
2023-02-26T01:54:38.894Z,71.04
2023-02-26T01:56:41.883Z,71.66
2023-02-26T01:58:44.858Z,70.53
2023-02-26T02:00:46.886Z,70.25
2023-02-26T02:02:50.248Z,70.11
2023-02-26T02:04:53.346Z,70.46
2023-02-26T02:06:56.506Z,70.71
2023-02-26T02:08:58.536Z,69.07
2023-02-26T02:11:00.453Z,68.95
2023-02-26T02:13:35.782Z,68.60
2023-02-26T02:15:47.844Z,70.78
2023-02-26T02:17:49.703Z,69.40
2023-02-26T02:19:57.348Z,69.70
2023-02-26T02:22:21.418Z,70.27
2023-02-26T02:24:54.415Z,70.13
2023-02-26T02:27:28.310Z,70.69
2023-02-26T02:30:11.654Z,70.06
2023-02-26T02:32:24.480Z,70.60
2023-02-26T02:34:50.218Z,69.56
2023-02-26T02:36:58.257Z,70.17
2023-02-26T02:39:09.977Z,70.34
2023-02-26T02:41:18.412Z,69.93
2023-02-26T02:43:25.777Z,69.85
2023-02-26T02:45:49.962Z,69.06
2023-02-26T02:48:03.102Z,69.76
2023-02-26T02:50:28.197Z,70.15
2023-02-26T02:52:30.103Z,70.51
2023-02-26T02:54:41.751Z,69.59
2023-02-26T02:57:11.690Z,69.46
2023-02-26T02:59:33.545Z,70.47
2023-02-26T03:01:36.015Z,70.72
2023-02-26T03:03:51.106Z,71.37
2023-02-26T03:05:53.127Z,71.64
2023-02-26T03:08:05.085Z,71.00
2023-02-26T03:10:07.478Z,71.45
2023-02-26T03:12:09.965Z,72.66
2023-02-26T03:14:14.629Z,72.95
2023-02-26T03:16:44.310Z,72.71
2023-02-26T03:18:58.080Z,72.19
2023-02-26T03:21:05.249Z,72.59
2023-02-26T03:23:15.018Z,72.08
2023-02-26T03:25:27.360Z,72.49
2023-02-26T03:27:35.944Z,73.83
2023-02-26T03:29:37.788Z,73.66
2023-02-26T03:31:52.215Z,74.19
2023-02-26T03:34:09.421Z,74.46
2023-02-26T03:36:29.642Z,75.15
2023-02-26T03:38:48.361Z,75.34
2023-02-26T03:40:59.268Z,74.51
2023-02-26T03:43:08.770Z,73.39
2023-02-26T03:45:19.277Z,73.81
2023-02-26T03:47:23.026Z,74.08
2023-02-26T03:49:34.747Z,74.89
2023-02-26T03:51:38.751Z,75.43
2023-02-26T03:53:50.144Z,74.75
2023-02-26T03:56:04.368Z,75.95
2023-02-26T03:58:06.093Z,76.02
2023-02-26T04:00:13.146Z,76.03
2023-02-26T04:02:19.904Z,76.50
2023-02-26T04:04:43.719Z,77.11
2023-02-26T04:06:47.732Z,75.96
2023-02-26T04:08:49.626Z,76.91
2023-02-26T04:11:17.766Z,76.76
2023-02-26T04:13:19.682Z,76.88
2023-02-26T04:15:21.561Z,77.13
2023-02-26T04:17:23.415Z,77.62
2023-02-26T04:19:25.094Z,76.96
2023-02-26T04:21:26.911Z,76.79
2023-02-26T04:23:28.658Z,76.74
2023-02-26T04:25:31.464Z,76.98
2023-02-26T04:27:34.411Z,77.38
2023-02-26T04:29:37.272Z,77.42
2023-02-26T04:31:40.924Z,77.30
2023-02-26T04:33:43.087Z,77.04
2023-02-26T04:35:45.328Z,76.71
2023-02-26T04:37:47.095Z,76.14
2023-02-26T04:39:48.829Z,76.90
2023-02-26T04:41:50.558Z,75.77
2023-02-26T04:43:52.357Z,75.61
2023-02-26T04:45:54.176Z,75.68
2023-02-26T04:47:55.997Z,75.56
2023-02-26T04:49:58.710Z,75.11
2023-02-26T04:52:00.546Z,76.29
2023-02-26T04:54:02.331Z,75.09
2023-02-26T04:56:05.187Z,75.31
2023-02-26T04:58:07.546Z,76.08
2023-02-26T05:00:09.707Z,76.46
2023-02-26T05:02:11.514Z,77.23
2023-02-26T05:04:13.300Z,76.47
2023-02-26T05:06:16.068Z,77.08
2023-02-26T05:08:17.883Z,76.61
2023-02-26T05:10:19.863Z,77.13
2023-02-26T05:12:21.641Z,76.59
2023-02-26T05:14:23.411Z,76.99
2023-02-26T05:16:27.550Z,74.59
2023-02-26T05:18:29.921Z,75.16
2023-02-26T05:20:32.040Z,75.29
2023-02-26T05:22:33.893Z,74.32
2023-02-26T05:24:35.717Z,72.49
2023-02-26T05:26:37.493Z,71.21
2023-02-26T05:28:39.390Z,70.86
2023-02-26T05:30:41.247Z,71.31
2023-02-26T05:32:43.652Z,69.58
2023-02-26T05:34:45.463Z,68.99
2023-02-26T05:36:47.252Z,69.74
2023-02-26T05:38:50.095Z,69.21
2023-02-26T05:40:55.863Z,68.98
2023-02-26T05:42:57.615Z,67.41
2023-02-26T05:44:59.362Z,67.83
2023-02-26T05:47:03.507Z,67.61
2023-02-26T05:49:05.316Z,66.43
2023-02-26T05:51:07.265Z,66.57
2023-02-26T05:53:09.031Z,65.98
2023-02-26T05:55:11.125Z,66.31
2023-02-26T05:57:12.886Z,67.25
2023-02-26T05:59:14.604Z,66.72
2023-02-26T06:01:16.371Z,66.79
2023-02-26T06:03:18.231Z,68.08
2023-02-26T06:05:19.995Z,66.61
2023-02-26T06:07:22.045Z,66.32
2023-02-26T06:09:23.865Z,66.44
2023-02-26T06:11:25.616Z,66.54
2023-02-26T06:13:27.383Z,67.24
2023-02-26T06:15:29.112Z,67.10
2023-02-26T06:17:31.013Z,62.83
2023-02-26T06:19:34.855Z,61.76
2023-02-26T06:21:36.573Z,62.22
2023-02-26T06:23:38.361Z,61.67
2023-02-26T06:25:40.121Z,62.22
2023-02-26T06:27:42.174Z,62.47
2023-02-26T06:29:44.290Z,62.14
2023-02-26T06:31:46.632Z,61.96
2023-02-26T06:33:48.408Z,61.90
2023-02-26T06:35:50.166Z,62.20
2023-02-26T06:37:51.966Z,62.13
2023-02-26T06:39:54.700Z,61.92
2023-02-26T06:41:56.531Z,61.28
2023-02-26T06:43:58.422Z,60.94
2023-02-26T06:46:01.017Z,61.49
2023-02-26T06:48:03.102Z,61.48
2023-02-26T06:50:05.414Z,60.82
2023-02-26T06:52:07.280Z,61.15
2023-02-26T06:54:11.055Z,61.28
2023-02-26T06:56:12.813Z,60.84
2023-02-26T06:58:14.724Z,61.55
2023-02-26T07:00:16.686Z,60.35
2023-02-26T07:02:39.074Z,60.43
2023-02-26T07:04:40.935Z,60.91
2023-02-26T07:06:42.883Z,60.15
2023-02-26T07:08:44.845Z,59.98
2023-02-26T07:10:49.562Z,60.62
2023-02-26T07:12:51.763Z,60.98
2023-02-26T07:14:53.468Z,60.51
2023-02-26T07:16:55.473Z,60.84
2023-02-26T07:18:57.242Z,61.44
2023-02-26T07:20:58.988Z,61.85
2023-02-26T07:23:00.751Z,62.16
2023-02-26T07:25:02.671Z,60.39
2023-02-26T07:27:04.429Z,59.81
2023-02-26T07:29:08.970Z,60.45
2023-02-26T07:31:11.071Z,60.08
2023-02-26T07:33:13.810Z,60.15
2023-02-26T07:35:15.790Z,60.71
2023-02-26T07:37:17.717Z,60.36
2023-02-26T07:39:56.075Z,61.01
2023-02-26T07:41:58.125Z,61.58
2023-02-26T07:44:00.115Z,61.51
2023-02-26T07:46:02.093Z,60.09
2023-02-26T07:48:04.575Z,61.78
2023-02-26T07:50:07.957Z,61.91
2023-02-26T07:52:10.105Z,60.63
2023-02-26T07:54:15.413Z,61.63
2023-02-26T07:56:17.205Z,60.91
2023-02-26T07:58:19.920Z,61.32
2023-02-26T08:00:21.902Z,60.10
2023-02-26T08:02:23.754Z,61.54
2023-02-26T08:04:25.637Z,60.82
2023-02-26T08:06:27.816Z,61.23
2023-02-26T08:08:29.882Z,60.64
2023-02-26T08:10:31.723Z,59.71
2023-02-26T08:12:33.478Z,60.07
2023-02-26T08:14:35.236Z,60.45
2023-02-26T08:16:39.142Z,60.19
2023-02-26T08:18:40.892Z,60.40
2023-02-26T08:20:42.859Z,60.36
2023-02-26T08:22:44.848Z,60.35
2023-02-26T08:24:46.926Z,60.55
2023-02-26T08:26:48.913Z,60.71
2023-02-26T08:28:50.882Z,61.03
2023-02-26T08:30:56.225Z,60.27
2023-02-26T08:32:58.305Z,59.90
2023-02-26T08:35:00.207Z,60.03
2023-02-26T08:37:04.236Z,60.30
2023-02-26T08:39:07.162Z,58.94
2023-02-26T08:41:09.211Z,59.33
2023-02-26T08:43:12.069Z,59.26
2023-02-26T08:45:13.885Z,58.67
2023-02-26T08:47:21.752Z,60.22
2023-02-26T08:50:19.055Z,60.51
2023-02-26T08:52:21.804Z,60.21
2023-02-26T08:54:23.875Z,60.79
2023-02-26T08:56:26.117Z,61.15
2023-02-26T08:58:28.491Z,60.63
2023-02-26T09:00:31.236Z,59.90
2023-02-26T09:02:35.031Z,60.63
2023-02-26T09:04:36.892Z,60.64
2023-02-26T09:06:38.812Z,60.86
2023-02-26T09:08:41.246Z,61.08
2023-02-26T09:10:44.492Z,62.54
2023-02-26T09:12:47.107Z,62.45
2023-02-26T09:14:49.224Z,61.18
2023-02-26T09:16:51.666Z,61.96
2023-02-26T09:18:53.874Z,61.25
2023-02-26T09:20:55.929Z,61.52
2023-02-26T09:22:58.272Z,61.47
2023-02-26T09:25:02.402Z,62.13
2023-02-26T09:27:04.881Z,61.75
2023-02-26T09:29:09.288Z,61.08
2023-02-26T09:31:11.191Z,62.30
2023-02-26T09:33:13.000Z,61.06
2023-02-26T09:35:16.865Z,61.69
2023-02-26T09:37:19.139Z,61.73
2023-02-26T09:39:20.910Z,61.60
2023-02-26T09:41:29.518Z,62.47
2023-02-26T09:44:12.440Z,61.18
2023-02-26T09:46:32.350Z,62.54
2023-02-26T09:48:36.864Z,62.53
2023-02-26T09:50:47.523Z,62.94
2023-02-26T09:53:01.919Z,62.97
2023-02-26T09:55:13.297Z,62.49
2023-02-26T09:57:32.121Z,63.56
2023-02-26T09:59:35.154Z,64.12
2023-02-26T10:01:44.014Z,64.32
2023-02-26T10:04:00.534Z,64.67
2023-02-26T10:06:18.700Z,62.71
2023-02-26T10:08:26.647Z,63.39
2023-02-26T10:10:57.861Z,64.84
2023-02-26T10:13:00.750Z,62.84
2023-02-26T10:15:13.597Z,63.58
2023-02-26T10:17:21.414Z,63.53
2023-02-26T10:19:28.491Z,63.76
2023-02-26T10:21:40.697Z,63.17
2023-02-26T10:23:49.264Z,62.86
2023-02-26T10:26:12.443Z,61.99
2023-02-26T10:28:39.148Z,61.92
2023-02-26T10:30:54.604Z,63.08
2023-02-26T10:33:03.410Z,63.86
2023-02-26T10:35:33.392Z,61.86
2023-02-26T10:38:15.646Z,62.15
2023-02-26T10:40:24.887Z,61.52
2023-02-26T10:43:08.291Z,61.49
2023-02-26T10:45:43.146Z,62.40
2023-02-26T10:48:21.903Z,61.54
2023-02-26T10:50:27.972Z,60.39
2023-02-26T10:52:38.527Z,60.14
2023-02-26T10:54:50.251Z,60.30
2023-02-26T10:56:52.369Z,58.25
2023-02-26T10:58:55.524Z,58.06
2023-02-26T11:00:58.579Z,58.55
2023-02-26T11:03:19.445Z,57.83
2023-02-26T11:05:31.055Z,57.10
2023-02-26T11:07:38.491Z,57.08
2023-02-26T11:09:49.382Z,56.47
2023-02-26T11:12:38.203Z,57.01
2023-02-26T11:14:47.651Z,55.69
2023-02-26T11:17:05.350Z,56.06
2023-02-26T11:19:09.261Z,55.95
2023-02-26T11:21:25.657Z,57.28
2023-02-26T11:23:32.628Z,57.22
2023-02-26T11:25:38.610Z,57.81
2023-02-26T11:27:49.972Z,57.50
2023-02-26T11:30:06.637Z,56.91
2023-02-26T11:32:19.636Z,56.15
2023-02-26T11:34:26.867Z,57.51
2023-02-26T11:36:33.472Z,56.90
2023-02-26T11:38:37.471Z,56.51
2023-02-26T11:40:42.716Z,57.41
2023-02-26T11:43:01.321Z,55.79
2023-02-26T11:45:17.067Z,57.13
2023-02-26T11:47:29.869Z,55.92
2023-02-26T11:49:34.418Z,56.97
2023-02-26T11:51:37.655Z,56.83
2023-02-26T11:53:51.809Z,57.69
2023-02-26T11:56:27.928Z,57.43
2023-02-26T11:58:36.340Z,56.76
2023-02-26T12:00:40.081Z,58.97
2023-02-26T12:02:43.377Z,56.75
2023-02-26T12:04:52.724Z,57.29
2023-02-26T12:07:01.043Z,57.01
2023-02-26T12:09:03.766Z,57.00
2023-02-26T12:11:18.494Z,58.10
2023-02-26T12:13:58.564Z,60.01
2023-02-26T12:16:56.099Z,58.83
2023-02-26T12:19:16.804Z,59.40
2023-02-26T12:21:51.760Z,58.57
2023-02-26T12:24:03.112Z,58.13
2023-02-26T12:26:30.167Z,58.50
2023-02-26T12:29:14.577Z,57.30
2023-02-26T12:31:47.915Z,56.62
2023-02-26T12:34:30.309Z,57.77
2023-02-26T12:36:53.046Z,55.53
2023-02-26T12:39:44.573Z,54.73
2023-02-26T12:42:12.277Z,54.41
2023-02-26T12:44:29.985Z,55.72
2023-02-26T12:46:38.527Z,53.89
2023-02-26T12:48:41.492Z,55.22
2023-02-26T12:51:21.653Z,54.79
2023-02-26T12:53:44.627Z,53.18
2023-02-26T12:56:18.054Z,53.60
2023-02-26T12:58:47.945Z,54.26
2023-02-26T13:00:53.226Z,55.32
2023-02-26T13:03:09.077Z,54.15
2023-02-26T13:05:27.869Z,55.14
2023-02-26T13:07:51.151Z,55.56
2023-02-26T13:10:11.207Z,53.75
2023-02-26T13:12:39.760Z,53.49
2023-02-26T13:15:19.622Z,53.70
2023-02-26T13:17:31.754Z,54.48
2023-02-26T13:20:06.359Z,55.09
2023-02-26T13:22:20.644Z,54.85
2023-02-26T13:24:42.628Z,57.61
2023-02-26T13:26:54.927Z,54.57
2023-02-26T13:29:01.986Z,54.01
2023-02-26T13:31:13.491Z,53.80
2023-02-26T13:33:26.540Z,54.44
2023-02-26T13:35:38.152Z,53.86
2023-02-26T13:37:42.811Z,54.07
2023-02-26T13:40:25.599Z,54.52
2023-02-26T13:42:44.045Z,54.61
2023-02-26T13:45:00.893Z,54.31
2023-02-26T13:47:33.222Z,53.90
2023-02-26T13:49:51.784Z,54.17
2023-02-26T13:51:55.588Z,54.46
2023-02-26T13:54:14.365Z,54.08
2023-02-26T13:56:39.327Z,55.04
2023-02-26T13:58:52.705Z,54.87
2023-02-26T14:01:20.407Z,54.30
2023-02-26T14:03:26.853Z,55.71
2023-02-26T14:05:42.685Z,55.52
2023-02-26T14:08:09.973Z,55.56
2023-02-26T14:10:34.222Z,55.44
2023-02-26T14:12:42.413Z,55.50
2023-02-26T14:15:08.710Z,56.01
2023-02-26T14:17:15.555Z,54.55
2023-02-26T14:19:35.143Z,54.83
2023-02-26T14:21:59.456Z,56.21
2023-02-26T14:24:07.345Z,55.15
2023-02-26T14:26:19.193Z,54.91
2023-02-26T14:29:05.955Z,54.26
2023-02-26T14:31:20.306Z,53.50
2023-02-26T14:33:30.559Z,54.39
2023-02-26T14:35:43.977Z,55.13
2023-02-26T14:37:59.392Z,55.13
2023-02-26T14:40:16.998Z,55.08
2023-02-26T14:42:23.103Z,54.99
2023-02-26T14:44:35.470Z,54.58
2023-02-26T14:46:37.735Z,55.01
2023-02-26T14:48:44.989Z,56.27
2023-02-26T14:51:07.296Z,55.32
2023-02-26T14:53:46.370Z,55.45
2023-02-26T14:55:51.008Z,55.64
2023-02-26T14:58:14.230Z,55.58
2023-02-26T15:00:55.048Z,55.11
2023-02-26T15:03:36.747Z,55.58
2023-02-26T15:06:08.832Z,56.43
2023-02-26T15:08:48.507Z,56.44
2023-02-26T15:11:01.778Z,57.53
2023-02-26T15:13:41.153Z,56.49
2023-02-26T15:15:55.854Z,57.72
2023-02-26T15:18:18.124Z,57.34
2023-02-26T15:21:05.488Z,57.80
2023-02-26T15:23:19.308Z,57.71
2023-02-26T15:25:33.529Z,58.77
2023-02-26T15:27:37.639Z,59.44
2023-02-26T15:29:42.871Z,59.66
2023-02-26T15:31:57.410Z,59.87
2023-02-26T15:34:01.206Z,59.37
2023-02-26T15:36:29.740Z,59.18
2023-02-26T15:38:54.428Z,57.58
2023-02-26T15:41:04.236Z,57.82
2023-02-26T15:43:21.326Z,59.30
2023-02-26T15:45:57.735Z,60.15
2023-02-26T15:48:04.528Z,59.55
2023-02-26T15:50:26.144Z,61.10
2023-02-26T15:52:31.581Z,60.84
2023-02-26T15:55:08.937Z,61.08
2023-02-26T15:57:32.998Z,60.35
2023-02-26T15:59:51.298Z,59.41
2023-02-26T16:01:56.122Z,59.48
2023-02-26T16:04:08.031Z,60.75
2023-02-26T16:06:18.445Z,60.62
2023-02-26T16:08:22.340Z,60.99
2023-02-26T16:10:41.972Z,62.29
2023-02-26T16:12:54.494Z,62.59
2023-02-26T16:15:05.512Z,62.15
2023-02-26T16:17:30.634Z,61.10
2023-02-26T16:19:49.289Z,61.86
2023-02-26T16:21:54.705Z,62.20
2023-02-26T16:24:02.206Z,62.18
2023-02-26T16:26:08.246Z,62.35
2023-02-26T16:28:23.028Z,62.55
2023-02-26T16:30:38.124Z,62.02
2023-02-26T16:32:48.197Z,62.61
2023-02-26T16:34:54.907Z,62.92
2023-02-26T16:37:21.496Z,62.77
2023-02-26T16:39:31.564Z,63.37
2023-02-26T16:41:41.746Z,63.80
2023-02-26T16:43:48.906Z,63.72
2023-02-26T16:46:02.299Z,63.80
2023-02-26T16:48:15.884Z,63.77
2023-02-26T16:50:35.164Z,62.96
2023-02-26T16:52:44.133Z,63.92
2023-02-26T16:55:02.729Z,64.26
2023-02-26T16:57:18.784Z,65.07
2023-02-26T16:59:32.760Z,64.38
2023-02-26T17:02:03.589Z,66.06
2023-02-26T17:04:17.810Z,66.81
2023-02-26T17:06:32.206Z,65.55
2023-02-26T17:08:50.659Z,66.99
2023-02-26T17:11:07.425Z,70.30
2023-02-26T17:13:34.352Z,71.65
2023-02-26T17:15:41.976Z,68.25
2023-02-26T17:17:45.389Z,66.45
2023-02-26T17:19:47.784Z,66.76
2023-02-26T17:21:59.701Z,69.26
2023-02-26T17:24:03.634Z,69.12
2023-02-26T17:26:15.440Z,71.20
2023-02-26T17:28:27.660Z,71.60
2023-02-26T17:30:33.923Z,70.26
2023-02-26T17:32:46.038Z,68.80
2023-02-26T17:34:50.726Z,67.94
2023-02-26T17:36:57.834Z,67.34
2023-02-26T17:39:03.373Z,67.12
2023-02-26T17:41:07.833Z,67.71
2023-02-26T17:43:18.674Z,68.32
2023-02-26T17:45:34.730Z,68.41
2023-02-26T17:47:50.984Z,66.68
2023-02-26T17:50:02.353Z,67.51
2023-02-26T17:52:07.395Z,66.79
2023-02-26T17:54:17.328Z,65.54
2023-02-26T17:56:33.942Z,64.76
2023-02-26T17:58:37.041Z,64.32
2023-02-26T18:00:42.668Z,63.01
2023-02-26T18:02:48.404Z,61.92
2023-02-26T18:05:00.308Z,62.19
2023-02-26T18:07:09.398Z,62.72
2023-02-26T18:09:13.999Z,62.37
2023-02-26T18:11:20.632Z,62.58
2023-02-26T18:13:28.068Z,61.89
2023-02-26T18:15:43.863Z,62.42
2023-02-26T18:17:46.960Z,61.60
2023-02-26T18:19:50.334Z,61.80
2023-02-26T18:21:54.195Z,61.95
2023-02-26T18:23:57.796Z,61.21
2023-02-26T18:26:03.426Z,61.43
2023-02-26T18:28:22.635Z,62.30
2023-02-26T18:30:33.968Z,61.38
2023-02-26T18:32:37.404Z,61.54
2023-02-26T18:34:40.549Z,60.99
2023-02-26T18:36:42.867Z,60.62
2023-02-26T18:38:52.818Z,60.41
2023-02-26T18:40:56.332Z,61.28
2023-02-26T18:42:59.763Z,61.05
2023-02-26T18:45:02.750Z,61.15
2023-02-26T18:47:12.337Z,60.34
2023-02-26T18:49:21.327Z,60.00
2023-02-26T18:51:24.933Z,59.97
2023-02-26T18:53:28.691Z,59.92
2023-02-26T18:55:34.626Z,59.78
2023-02-26T18:57:43.272Z,61.11
2023-02-26T18:59:50.455Z,59.91
2023-02-26T19:01:57.846Z,59.20
2023-02-26T19:04:00.914Z,59.80
2023-02-26T19:06:24.229Z,59.06
2023-02-26T19:08:27.960Z,58.39
2023-02-26T19:10:31.981Z,59.17
2023-02-26T19:12:35.888Z,59.25
2023-02-26T19:15:01.551Z,58.07
2023-02-26T19:17:12.718Z,55.95
2023-02-26T19:19:18.525Z,55.50
2023-02-26T19:21:28.084Z,53.68
2023-02-26T19:23:32.622Z,52.70
2023-02-26T19:25:48.896Z,51.86
2023-02-26T19:27:54.069Z,52.44
2023-02-26T19:29:58.680Z,51.37
2023-02-26T19:32:12.787Z,51.20
2023-02-26T19:34:16.123Z,51.45
2023-02-26T19:36:23.311Z,52.34
2023-02-26T19:38:26.511Z,53.05
2023-02-26T19:40:30.427Z,52.71
2023-02-26T19:42:38.049Z,52.60
2023-02-26T19:44:42.397Z,53.09
2023-02-26T19:46:54.834Z,53.54
2023-02-26T19:49:10.740Z,54.04
2023-02-26T19:51:13.839Z,54.82
2023-02-26T19:53:17.161Z,53.00
2023-02-26T19:55:23.399Z,51.57
2023-02-26T19:57:26.042Z,54.24
2023-02-26T19:59:30.921Z,53.43
2023-02-26T20:01:34.829Z,53.28
2023-02-26T20:03:48.904Z,52.92
2023-02-26T20:05:53.650Z,53.15
2023-02-26T20:07:57.243Z,52.93
2023-02-26T20:10:04.679Z,52.43
2023-02-26T20:12:15.490Z,53.41
2023-02-26T20:14:19.343Z,54.27
2023-02-26T20:16:26.837Z,53.77
2023-02-26T20:18:32.430Z,53.75
2023-02-26T20:20:35.677Z,55.26
2023-02-26T20:22:38.427Z,55.90
2023-02-26T20:24:42.123Z,55.78
2023-02-26T20:26:49.669Z,56.41
2023-02-26T20:28:58.959Z,57.36
2023-02-26T20:31:07.219Z,57.61
2023-02-26T20:33:13.814Z,57.71
2023-02-26T20:35:19.665Z,58.14
2023-02-26T20:37:23.098Z,58.70
2023-02-26T20:39:30.030Z,58.98
2023-02-26T20:41:33.042Z,58.85
2023-02-26T20:43:37.838Z,59.21
2023-02-26T20:45:43.740Z,59.56
2023-02-26T20:47:54.269Z,59.13
2023-02-26T20:49:58.418Z,58.73
2023-02-26T20:52:03.623Z,58.77
2023-02-26T20:54:09.789Z,59.25
2023-02-26T20:56:25.392Z,60.10
2023-02-26T20:58:28.853Z,60.06
2023-02-26T21:00:42.337Z,60.50
2023-02-26T21:02:47.302Z,60.33
2023-02-26T21:04:50.174Z,59.49
2023-02-26T21:07:12.947Z,59.63
2023-02-26T21:09:23.072Z,59.75
2023-02-26T21:11:36.895Z,60.82
2023-02-26T21:13:44.114Z,61.54
2023-02-26T21:15:52.870Z,61.95
2023-02-26T21:18:01.162Z,62.44
2023-02-26T21:20:06.127Z,62.29
2023-02-26T21:22:12.269Z,62.97
2023-02-26T21:24:17.863Z,63.10
2023-02-26T21:26:24.061Z,63.00
2023-02-26T21:29:03.055Z,63.54
2023-02-26T21:31:04.339Z,63.56
2023-02-26T21:33:12.622Z,63.89
2023-02-26T21:35:17.361Z,64.15
2023-02-26T21:37:26.599Z,64.51
2023-02-26T21:39:18.662Z,65.00
2023-02-26T21:39:31.406Z,64.75
2023-02-26T21:39:46.148Z,64.75
2023-02-26T21:40:06.752Z,64.99
2023-02-26T21:40:18.816Z,64.60
2023-02-26T21:40:32.389Z,64.71
2023-02-26T21:40:47.056Z,65.10
2023-02-26T21:40:59.147Z,64.57
2023-02-26T21:41:11.641Z,65.09
2023-02-26T21:41:27.396Z,64.76
2023-02-26T21:41:41.309Z,64.83
2023-02-26T21:41:57.438Z,65.01
2023-02-26T21:42:16.936Z,65.20
2023-02-26T21:44:46.407Z,65.49
2023-02-26T21:47:22.327Z,65.26
2023-02-26T21:49:16.679Z,65.79
2023-02-26T21:51:23.846Z,66.08
2023-02-26T21:53:29.998Z,66.33
2023-02-26T21:55:37.571Z,67.35
2023-02-26T21:59:29.058Z,67.58
2023-02-26T22:01:33.310Z,68.23
2023-02-26T22:03:38.092Z,68.36
2023-02-26T22:05:43.434Z,68.74
2023-02-26T22:07:48.253Z,68.57
2023-02-26T22:09:54.226Z,69.27
2023-02-26T22:11:56.366Z,70.14
2023-02-26T22:14:00.344Z,69.63
2023-02-26T22:16:02.335Z,70.33
2023-02-26T22:18:04.772Z,70.41
2023-02-26T22:20:09.976Z,71.02
2023-02-26T22:22:13.952Z,70.57
2023-02-26T22:24:15.948Z,70.77
2023-02-26T22:26:24.708Z,71.32
2023-02-26T22:28:29.001Z,71.61
2023-02-26T22:30:33.120Z,71.41
2023-02-26T22:32:35.719Z,71.88
2023-02-26T22:34:39.754Z,72.03
2023-02-26T22:36:41.772Z,72.15
2023-02-26T22:38:47.653Z,72.48
2023-02-26T22:40:50.657Z,72.21
2023-02-26T22:43:55.267Z,73.02
2023-02-26T22:45:57.246Z,73.52
2023-02-26T22:48:01.449Z,73.37
2023-02-26T22:50:05.675Z,73.60
2023-02-26T22:52:08.085Z,73.04
2023-02-26T22:54:12.207Z,73.99
2023-02-26T22:56:17.888Z,73.54
2023-02-26T22:58:19.810Z,73.55
2023-02-26T23:00:21.761Z,73.44
2023-02-26T23:02:25.602Z,73.79
2023-02-26T23:04:28.631Z,73.58
2023-02-26T23:06:30.653Z,73.73
2023-02-26T23:08:32.679Z,73.00
2023-02-26T23:10:34.692Z,72.66
2023-02-26T23:12:38.645Z,73.12
2023-02-26T23:14:43.269Z,73.19
2023-02-26T23:16:45.211Z,73.37
2023-02-26T23:18:48.309Z,73.89
2023-02-26T23:20:50.713Z,73.97
2023-02-26T23:22:53.775Z,72.39
2023-02-26T23:24:56.733Z,72.69
2023-02-26T23:26:58.838Z,73.04
2023-02-26T23:29:00.755Z,72.87
2023-02-26T23:31:02.977Z,72.83
2023-02-26T23:33:07.376Z,72.90
2023-02-26T23:35:10.673Z,73.38
2023-02-26T23:37:12.688Z,73.66
2023-02-26T23:39:15.515Z,73.26
2023-02-26T23:41:18.690Z,73.29
2023-02-26T23:43:23.509Z,73.36
2023-02-26T23:45:25.678Z,73.15
2023-02-26T23:47:27.606Z,73.79
2023-02-26T23:49:29.573Z,73.88
2023-02-26T23:51:31.585Z,74.05
2023-02-26T23:53:33.489Z,73.94
2023-02-26T23:55:35.372Z,74.20
2023-02-26T23:57:38.035Z,74.51
2023-02-26T23:59:40.007Z,74.24
